Flight Track Log - Related Links

Times and Time Zones

All times are in EDT time to prevent confusion due to time zone crossing. See the VH-YDN flight status page for this flight to view local times or setup timezone preferences in your user account.

Time Position Orientation Groundspeed Altitude Reporting Facility
EDT Latitude Longitude Course Direction KTS MPH feet Rate Location/Type
Sun 08:48:16 PM -19.7428 134.1740 184° South 23,000  Level Aus ATC (Calculated)
Sun 08:49:33 PM -19.8510 134.1662 184° South 23,000  Level Aus ATC (Calculated)
Sun 08:51:00 PM -19.9376 134.1600 184° South  Level FlightAware Approximate
Sun 08:51:39 PM -19.9591 134.1584 184° South 23,000  Level Aus ATC (Calculated)
Sun 08:53:00 PM -20.0397 134.1527 184° South  Level FlightAware Approximate
Sun 08:54:00 PM -20.0995 134.1484 184° South  Level FlightAware Approximate
Sun 08:55:00 PM -20.1593 134.1441 184° South  Level FlightAware Approximate
Sun 08:56:00 PM -20.2190 134.1398 184° South  Level FlightAware Approximate
Sun 08:57:00 PM -20.2788 134.1355 184° South  Level FlightAware Approximate
Sun 08:58:00 PM -20.3386 134.1311 184° South  Level FlightAware Approximate
Sun 08:59:00 PM -20.3983 134.1268 184° South  Level FlightAware Approximate
Sun 09:00:00 PM -20.4581 134.1225 184° South  Level FlightAware Approximate
Sun 09:01:00 PM -20.5178 134.1182 184° South  Level FlightAware Approximate
Sun 09:01:00 PM -20.4456 134.1234 184° South 23,000  Level Aus ATC (Calculated)
Sun 09:02:00 PM -20.5054 134.1191 184° South  Level FlightAware Approximate
Sun 09:02:04 PM -20.4997 134.1195 184° South 23,000  Level Aus ATC (Calculated)
Sun 09:03:00 PM -20.5651 134.1148 184° South  Level FlightAware Approximate
Sun 09:04:00 PM -20.6152 134.1111 184° South  Level FlightAware Approximate
Sun 09:05:00 PM -20.6750 134.1068 184° South  Level FlightAware Approximate
Sun 09:06:00 PM -20.7347 134.1025 184° South  Level FlightAware Approximate
Sun 09:07:00 PM -20.7945 134.0981 184° South  Level FlightAware Approximate
Sun 09:08:00 PM -20.8542 134.0938 184° South  Level FlightAware Approximate
Sun 09:09:00 PM -20.9140 134.0895 184° South  Level FlightAware Approximate
Sun 09:10:00 PM -20.9738 134.0851 184° South  Level FlightAware Approximate
Sun 09:11:00 PM -21.0335 134.0808 184° South  Level FlightAware Approximate
Sun 09:12:00 PM -21.0933 134.0764 184° South  Level FlightAware Approximate
Sun 09:13:00 PM -21.1530 134.0721 184° South  Level FlightAware Approximate
Sun 09:14:00 PM -21.2128 134.0677 184° South  Level FlightAware Approximate
Sun 09:14:00 PM -21.1483 134.0724 184° South 23,000  Level Aus ATC (Calculated)
Sun 09:15:00 PM -21.2089 134.0680 184° South  Level FlightAware Approximate
Sun 09:16:00 PM -21.2696 134.0635 184° South  Level FlightAware Approximate
Sun 09:17:00 PM -21.3302 134.0591 184° South  Level FlightAware Approximate
Sun 09:17:05 PM -21.3105 134.0605 184° South 23,000  Level Aus ATC (Calculated)
Sun 09:17:39 PM -21.3645 134.0566 184° South 23,000  Level Aus ATC (Calculated)
Sun 09:19:00 PM -21.3762 134.0558 184° South  Level FlightAware Approximate
Sun 09:20:00 PM -21.4368 134.0513 184° South  Level FlightAware Approximate
Sun 09:21:00 PM -21.4974 134.0469 184° South  Level FlightAware Approximate
Sun 09:21:30 PM -21.5431 134.0436 184° South 23,000  Level Aus ATC (Calculated)
Sun 09:22:00 PM -21.5580 134.0425 184° South  Level FlightAware Approximate
Sun 09:23:00 PM -21.6187 134.0381 184° South  Level FlightAware Approximate
Sun 09:24:00 PM -21.6947 134.0325 184° South  Level FlightAware Approximate
Sun 09:25:00 PM -21.7553 134.0281 184° South  Level FlightAware Approximate
Sun 09:26:00 PM -21.8160 134.0237 184° South  Level FlightAware Approximate
Sun 09:27:00 PM -21.8766 134.0192 184° South  Level FlightAware Approximate
Sun 09:27:10 PM -21.9004 134.0175 53° Northeast 23,000  Level Aus ATC (Calculated)
Sun 09:27:10 PM -21.9004 134.0175 184° South 23,000  Level Aus ATC (Calculated)
Sun 09:29:00 PM -22.0116 134.0093 184° South  Level FlightAware Approximate
Sun 09:30:00 PM -22.0722 134.0049 184° South  Level FlightAware Approximate
Sun 09:31:00 PM -22.1328 134.0004 184° South  Level FlightAware Approximate
Sun 09:32:00 PM -22.1934 133.9960 184° South  Level FlightAware Approximate
Sun 09:33:00 PM -22.2540 133.9915 184° South  Level FlightAware Approximate
Sun 09:34:00 PM -22.3146 133.9870 184° South  Level FlightAware Approximate
Sun 09:35:00 PM -22.3753 133.9826 184° South  Level FlightAware Approximate
Sun 09:36:00 PM -22.4359 133.9781 184° South  Level FlightAware Approximate
Sun 09:37:00 PM -22.4965 133.9736 184° South  Level FlightAware Approximate
Sun 09:37:00 PM -22.5256 133.9715 183° South 23,000  Level Aus ATC (Calculated)
Sun 09:38:00 PM -22.5863 133.9682 184° South  Level Estimated
Sun 09:38:31 PM -22.6149 133.9648 184° South 23,000  Level Aus ATC (Calculated)
Sun 09:39:05 PM -22.7042 133.9582 360° North 23,000  Level Aus ATC (Calculated)
Sun 09:39:18 PM -22.7042 133.9582 184° South 23,000  Level Aus ATC (Calculated)
Sun 09:41:00 PM -22.8073 133.9507 184° South  Level FlightAware Approximate
Sun 09:42:00 PM -22.8679 133.9463 184° South  Level FlightAware Approximate
Sun 09:43:00 PM -22.9285 133.9418 184° South  Level FlightAware Approximate
Sun 09:44:00 PM -22.9892 133.9374 184° South  Level FlightAware Approximate
Sun 09:44:23 PM -22.9809 133.9379 184° South 500  Level Aus ATC (Calculated)
Sun 09:46:00 PM -23.0789 133.9308 184° South  Level FlightAware Approximate
Sun 09:46:56 PM -23.1682 133.9242 North 500  Level Aus ATC (Calculated)
Sun 09:47:00 PM -23.1395 133.9263 184° South  Level FlightAware Approximate
Sun 09:48:00 PM -23.2329 133.9195 184° South  Level FlightAware Approximate
Sun 09:48:27 PM -23.2307 133.9196 184° South 500  Level Aus ATC (Calculated)
Sun 09:49:19 PM -23.2931 133.9150 184° South 500  Level Aus ATC (Calculated)
Sun 09:51:00 PM -23.3952 133.9075 184° South  Level FlightAware Approximate
Sun 09:51:56 PM -23.4805 133.9013 North 500  Level Aus ATC (Calculated)
Sun 09:52:00 PM -23.4558 133.9031 184° South  Level FlightAware Approximate
Sun 09:53:00 PM -23.5451 133.8965 184° South  Level FlightAware Approximate
Sun 09:53:28 PM -23.5429 133.8967 184° South 500  Level Aus ATC (Calculated)
Sun 09:55:00 PM -23.6359 133.8898 184° South  Level FlightAware Approximate

Login

Don't have an account? Register now (free) for customized features, flight alerts, and more!